createdAt,value
2023-05-14T00:01:00.667Z,41.8748
2023-05-14T00:02:01.901Z,41.9304
2023-05-14T00:03:02.959Z,42.0086
2023-05-14T00:04:04.007Z,42.0442
2023-05-14T00:05:05.074Z,42.0669
2023-05-14T00:06:06.136Z,41.9975
2023-05-14T00:07:07.234Z,41.9420
2023-05-14T00:08:08.331Z,41.9186
2023-05-14T00:09:09.432Z,41.8252
2023-05-14T00:10:10.525Z,41.7051
2023-05-14T00:11:11.627Z,41.6747
2023-05-14T00:12:12.717Z,41.7378
2023-05-14T00:13:13.788Z,41.8046
2023-05-14T00:14:14.898Z,41.8001
2023-05-14T00:15:16.002Z,41.7884
2023-05-14T00:16:17.102Z,41.7608
2023-05-14T00:17:18.193Z,41.8280
2023-05-14T00:18:19.302Z,41.8397
2023-05-14T00:19:20.667Z,41.8539
2023-05-14T00:20:21.736Z,41.7976
2023-05-14T00:21:22.589Z,41.6927
2023-05-14T00:22:23.671Z,41.6583
2023-05-14T00:23:24.765Z,41.6037
2023-05-14T00:24:25.856Z,41.6097
2023-05-14T00:25:26.981Z,41.7010
2023-05-14T00:26:28.050Z,41.6745
2023-05-14T00:27:29.161Z,41.6594
2023-05-14T00:28:30.235Z,41.7829
2023-05-14T00:29:31.373Z,41.8638
2023-05-14T00:30:32.406Z,41.9187
2023-05-14T00:31:33.532Z,41.9725
2023-05-14T00:32:34.653Z,41.9418
2023-05-14T00:33:35.717Z,41.7826
2023-05-14T00:34:36.812Z,41.7352
2023-05-14T00:35:37.898Z,41.7831
2023-05-14T00:36:39.028Z,41.7683
2023-05-14T00:37:40.105Z,41.8181
2023-05-14T00:38:41.181Z,41.8123
2023-05-14T00:39:42.275Z,41.7575
2023-05-14T00:40:43.396Z,41.7695
2023-05-14T00:41:44.485Z,41.7226
2023-05-14T00:42:45.581Z,41.7713
2023-05-14T00:43:46.673Z,41.7982
2023-05-14T00:44:47.765Z,41.8212
2023-05-14T00:45:48.856Z,41.8763
2023-05-14T00:46:49.985Z,41.9018
2023-05-14T00:47:51.092Z,41.8452
2023-05-14T00:48:52.139Z,41.8170
2023-05-14T00:49:53.230Z,41.8440
2023-05-14T00:50:54.357Z,41.7915
2023-05-14T00:51:55.445Z,41.9210
2023-05-14T00:52:56.535Z,41.9882
2023-05-14T00:53:57.622Z,42.0444
2023-05-14T00:54:58.729Z,42.0552
2023-05-14T00:55:59.840Z,41.9706
2023-05-14T00:57:00.940Z,41.9289
2023-05-14T00:58:02.025Z,41.8896
2023-05-14T00:59:03.145Z,41.8443
2023-05-14T01:00:04.215Z,41.9157
2023-05-14T01:01:05.348Z,41.9676
2023-05-14T01:02:06.408Z,41.9476
2023-05-14T01:03:07.648Z,41.8510
2023-05-14T01:04:08.641Z,41.8185
2023-05-14T01:05:09.691Z,41.7743
2023-05-14T01:06:10.805Z,41.6474
2023-05-14T01:07:11.877Z,41.6070
2023-05-14T01:08:12.975Z,41.6916
2023-05-14T01:09:14.074Z,41.7540
2023-05-14T01:10:15.170Z,41.7693
2023-05-14T01:11:16.272Z,41.7665
2023-05-14T01:12:17.350Z,41.7439
2023-05-14T01:13:18.521Z,41.6983
2023-05-14T01:14:19.541Z,41.7370
2023-05-14T01:15:20.635Z,41.6661
2023-05-14T01:16:21.784Z,41.6120
2023-05-14T01:17:22.836Z,41.5939
2023-05-14T01:18:23.942Z,41.6387
2023-05-14T01:19:25.017Z,41.6719
2023-05-14T01:20:26.290Z,41.6077
2023-05-14T01:21:27.233Z,41.5898
2023-05-14T01:22:28.297Z,41.6217
2023-05-14T01:23:29.388Z,41.5166
2023-05-14T01:24:30.482Z,41.4919
2023-05-14T01:25:31.598Z,41.5735
2023-05-14T01:26:32.689Z,41.6812
2023-05-14T01:27:33.777Z,41.7106
2023-05-14T01:28:34.878Z,41.7458
2023-05-14T01:29:35.951Z,41.6889
2023-05-14T01:30:37.067Z,41.6055
2023-05-14T01:31:38.229Z,41.4974
2023-05-14T01:32:39.316Z,41.5114
2023-05-14T01:33:40.353Z,41.6312
2023-05-14T01:34:41.453Z,41.7609
2023-05-14T01:35:42.572Z,41.6934
2023-05-14T01:36:43.654Z,41.5907
2023-05-14T01:37:44.730Z,41.4587
2023-05-14T01:38:45.871Z,41.3914
2023-05-14T01:39:46.936Z,41.3956
2023-05-14T01:40:48.043Z,41.4029
2023-05-14T01:41:49.124Z,41.4333
2023-05-14T01:42:50.243Z,41.3743
2023-05-14T01:43:51.297Z,41.2857
2023-05-14T01:44:52.408Z,41.1524
2023-05-14T01:45:53.543Z,41.0320
2023-05-14T01:46:54.650Z,41.0017
2023-05-14T01:47:55.715Z,41.0875
2023-05-14T01:48:56.799Z,41.3326
2023-05-14T01:49:57.910Z,41.4399
2023-05-14T01:50:58.994Z,41.3177
2023-05-14T01:52:00.111Z,41.2969
2023-05-14T01:53:01.171Z,41.2876
2023-05-14T01:54:02.282Z,41.2051
2023-05-14T01:55:03.393Z,41.1977
2023-05-14T01:56:04.478Z,41.1786
2023-05-14T01:57:05.604Z,41.2052
2023-05-14T01:58:06.655Z,41.2461
2023-05-14T01:59:07.758Z,41.1909
2023-05-14T02:00:08.857Z,41.2650
2023-05-14T02:01:09.985Z,41.4268
2023-05-14T02:02:11.057Z,41.4555
2023-05-14T02:03:12.228Z,41.5127
2023-05-14T02:04:13.329Z,41.5299
2023-05-14T02:05:21.869Z,41.4029
2023-05-14T02:06:15.422Z,41.2517
2023-05-14T02:07:16.562Z,41.1302
2023-05-14T02:08:17.639Z,41.0834
2023-05-14T02:09:18.711Z,41.1739
2023-05-14T02:10:27.398Z,41.2627
2023-05-14T02:11:20.923Z,41.2709
2023-05-14T02:12:22.049Z,41.2174
2023-05-14T02:13:23.103Z,41.2463
2023-05-14T02:14:24.217Z,41.2453
2023-05-14T02:15:25.310Z,41.3125
2023-05-14T02:16:26.419Z,41.3044
2023-05-14T02:17:27.577Z,41.2775
2023-05-14T02:18:28.634Z,41.1980
2023-05-14T02:19:29.712Z,41.2695
2023-05-14T02:20:30.809Z,41.2869
2023-05-14T02:21:31.889Z,41.3496
2023-05-14T02:22:33.010Z,41.2949
2023-05-14T02:23:40.936Z,41.2677
2023-05-14T02:24:36.183Z,41.4025
2023-05-14T02:25:36.298Z,41.3789
2023-05-14T02:26:37.412Z,41.2870
2023-05-14T02:27:38.507Z,41.2217
2023-05-14T02:28:39.573Z,41.2536
2023-05-14T02:29:40.669Z,41.2312
2023-05-14T02:30:41.765Z,41.1536
2023-05-14T02:31:42.908Z,41.1117
2023-05-14T02:32:44.045Z,41.0941
2023-05-14T02:33:45.081Z,41.1642
2023-05-14T02:34:46.154Z,41.2041
2023-05-14T02:35:47.273Z,41.2110
2023-05-14T02:36:48.337Z,41.2824
2023-05-14T02:37:49.464Z,41.3774
2023-05-14T02:38:50.556Z,41.3583
2023-05-14T02:39:51.633Z,41.3784
2023-05-14T02:40:52.741Z,41.4384
2023-05-14T02:41:53.823Z,41.4422
2023-05-14T02:42:55.032Z,41.4379
2023-05-14T02:43:56.081Z,41.3168
2023-05-14T02:44:57.223Z,41.1778
2023-05-14T02:45:58.294Z,41.0242
2023-05-14T02:46:59.422Z,40.9229
2023-05-14T02:48:00.522Z,40.8900
2023-05-14T02:49:01.569Z,40.8765
2023-05-14T02:50:02.696Z,40.8509
2023-05-14T02:51:03.786Z,40.7921
2023-05-14T02:52:04.890Z,40.7980
2023-05-14T02:53:05.989Z,40.8177
2023-05-14T02:54:07.051Z,40.8387
2023-05-14T02:55:08.168Z,40.8971
2023-05-14T02:56:09.287Z,40.9144
2023-05-14T02:57:10.376Z,40.8425
2023-05-14T02:58:11.470Z,40.8237
2023-05-14T02:59:12.559Z,40.8672
2023-05-14T03:00:13.642Z,41.0017
2023-05-14T03:01:14.765Z,40.9816
2023-05-14T03:02:15.900Z,41.0406
2023-05-14T03:03:17.044Z,41.0650
2023-05-14T03:04:18.029Z,41.0578
2023-05-14T03:05:19.115Z,41.0023
2023-05-14T03:06:20.227Z,40.9925
2023-05-14T03:07:21.317Z,41.0203
2023-05-14T03:08:22.458Z,41.0066
2023-05-14T03:09:23.520Z,41.0644
2023-05-14T03:10:24.816Z,41.1096
2023-05-14T03:11:25.725Z,41.1335
2023-05-14T03:12:26.793Z,41.1526
2023-05-14T03:13:27.921Z,41.1640
2023-05-14T03:14:29.008Z,41.2672
2023-05-14T03:15:30.091Z,41.2947
2023-05-14T03:16:31.229Z,41.3267
2023-05-14T03:17:32.327Z,41.2387
2023-05-14T03:18:33.427Z,41.1730
2023-05-14T03:19:34.472Z,41.0777
2023-05-14T03:20:35.567Z,41.0702
2023-05-14T03:21:36.669Z,41.0513
2023-05-14T03:22:37.748Z,41.1406
2023-05-14T03:23:38.864Z,41.1958
2023-05-14T03:24:40.003Z,41.2084
2023-05-14T03:25:41.048Z,41.1556
2023-05-14T03:26:42.158Z,41.1936
2023-05-14T03:27:43.239Z,41.2920
2023-05-14T03:28:44.330Z,41.3010
2023-05-14T03:29:45.421Z,41.3446
2023-05-14T03:30:46.533Z,41.3132
2023-05-14T03:31:47.630Z,41.1742
2023-05-14T03:32:48.733Z,41.0861
2023-05-14T03:33:49.836Z,40.9940
2023-05-14T03:34:50.905Z,40.9459
2023-05-14T03:35:51.999Z,40.9001
2023-05-14T03:36:53.112Z,40.8781
2023-05-14T03:37:54.204Z,40.8726
2023-05-14T03:38:55.314Z,40.8358
2023-05-14T03:39:56.396Z,40.7375
2023-05-14T03:40:57.508Z,40.6358
2023-05-14T03:41:58.578Z,40.6807
2023-05-14T03:42:59.733Z,40.8075
2023-05-14T03:44:00.817Z,40.8822
2023-05-14T03:45:01.873Z,41.0102
2023-05-14T03:46:03.006Z,41.1272
2023-05-14T03:47:04.082Z,41.1788
2023-05-14T03:48:05.284Z,41.2079
2023-05-14T03:49:06.322Z,41.1923
2023-05-14T03:50:07.359Z,41.0635
2023-05-14T03:51:08.477Z,40.9359
2023-05-14T03:52:09.519Z,40.8773
2023-05-14T03:53:10.608Z,40.9571
2023-05-14T03:54:11.759Z,40.9786
2023-05-14T03:55:12.804Z,41.0173
2023-05-14T03:56:13.910Z,40.8886
2023-05-14T03:57:15.010Z,40.9056
2023-05-14T03:58:16.134Z,40.9727
2023-05-14T03:59:17.193Z,41.0915
2023-05-14T04:00:18.293Z,41.0288
2023-05-14T04:01:19.387Z,41.0033
2023-05-14T04:02:20.513Z,40.9392
2023-05-14T04:03:21.647Z,40.9725
2023-05-14T04:04:22.699Z,40.9003
2023-05-14T04:05:23.755Z,40.6982
2023-05-14T04:06:24.854Z,40.7033
2023-05-14T04:07:25.946Z,40.8717
2023-05-14T04:08:27.060Z,41.0245
2023-05-14T04:09:28.189Z,41.0267
2023-05-14T04:10:29.240Z,41.0302
2023-05-14T04:11:30.335Z,41.0610
2023-05-14T04:12:31.419Z,41.0923
2023-05-14T04:13:32.537Z,41.1327
2023-05-14T04:14:33.659Z,41.1120
2023-05-14T04:15:34.723Z,41.0542
2023-05-14T04:16:35.873Z,40.9924
2023-05-14T04:17:36.949Z,40.9533
2023-05-14T04:18:38.052Z,40.9810
2023-05-14T04:19:39.142Z,40.9851
2023-05-14T04:20:40.211Z,40.9561
2023-05-14T04:21:41.288Z,41.0039
2023-05-14T04:22:42.396Z,41.0647
2023-05-14T04:23:43.508Z,41.0691
2023-05-14T04:24:44.587Z,40.9821
2023-05-14T04:25:45.694Z,40.9877
2023-05-14T04:26:46.785Z,41.0074
2023-05-14T04:27:47.867Z,41.1063
2023-05-14T04:28:48.970Z,41.1993
2023-05-14T04:29:50.056Z,41.2380
2023-05-14T04:30:51.160Z,41.2793
2023-05-14T04:31:52.300Z,41.1927
2023-05-14T04:32:53.383Z,41.2325
2023-05-14T04:33:54.442Z,41.1797
2023-05-14T04:34:55.550Z,41.0106
2023-05-14T04:35:56.664Z,40.9166
2023-05-14T04:36:57.737Z,40.8352
2023-05-14T04:37:58.828Z,40.7951
2023-05-14T04:38:59.925Z,40.8032
2023-05-14T04:40:01.044Z,40.8775
2023-05-14T04:41:02.153Z,40.9040
2023-05-14T04:42:03.231Z,40.9253
2023-05-14T04:43:04.329Z,40.9154
2023-05-14T04:44:05.405Z,40.8802
2023-05-14T04:45:06.520Z,40.9455
2023-05-14T04:46:07.638Z,40.9010
2023-05-14T04:47:08.682Z,40.9497
2023-05-14T04:48:09.831Z,41.0134
2023-05-14T04:49:10.910Z,41.0970
2023-05-14T04:50:11.999Z,41.1165
2023-05-14T04:51:13.084Z,41.0526
2023-05-14T04:52:14.189Z,40.8882
2023-05-14T04:53:15.277Z,40.8025
2023-05-14T04:54:16.404Z,40.8047
2023-05-14T04:55:17.486Z,40.7960
2023-05-14T04:56:18.598Z,40.7896
2023-05-14T04:57:19.651Z,40.7499
2023-05-14T04:58:20.740Z,40.7975
2023-05-14T04:59:21.834Z,40.9259
2023-05-14T05:00:23.296Z,40.9508
2023-05-14T05:01:24.087Z,40.9886
2023-05-14T05:02:25.178Z,41.0534
2023-05-14T05:03:26.262Z,41.0878
2023-05-14T05:04:27.325Z,41.1793
2023-05-14T05:05:28.444Z,41.2820
2023-05-14T05:06:29.537Z,41.3582
2023-05-14T05:07:30.641Z,41.4485
2023-05-14T05:08:31.716Z,41.4298
2023-05-14T05:09:32.819Z,41.3142
2023-05-14T05:10:33.958Z,41.1501
2023-05-14T05:11:35.024Z,41.2000
2023-05-14T05:12:36.102Z,41.2119
2023-05-14T05:13:37.199Z,41.1181
2023-05-14T05:14:38.306Z,40.9999
2023-05-14T05:15:39.456Z,41.0312
2023-05-14T05:16:40.510Z,40.9759
2023-05-14T05:17:41.643Z,41.0011
2023-05-14T05:18:42.716Z,41.0938
2023-05-14T05:19:44.621Z,41.2188
2023-05-14T05:20:44.887Z,41.2929
2023-05-14T05:21:46.006Z,41.3080
2023-05-14T05:22:47.093Z,41.2834
2023-05-14T05:23:48.174Z,41.3619
2023-05-14T05:24:50.029Z,41.4324
2023-05-14T05:25:50.402Z,41.4749
2023-05-14T05:26:51.495Z,41.3983
2023-05-14T05:27:52.552Z,41.2577
2023-05-14T05:28:53.649Z,41.1655
2023-05-14T05:29:54.747Z,41.1531
2023-05-14T05:30:55.869Z,41.1355
2023-05-14T05:31:57.019Z,41.1337
2023-05-14T05:32:58.092Z,41.1721
2023-05-14T05:33:59.157Z,41.2157
2023-05-14T05:35:00.239Z,41.1158
2023-05-14T05:36:01.352Z,41.0399
2023-05-14T05:37:02.439Z,41.1256
2023-05-14T05:38:03.543Z,41.1949
2023-05-14T05:39:04.639Z,41.2230
2023-05-14T05:40:05.744Z,41.2771
2023-05-14T05:41:06.855Z,41.2719
2023-05-14T05:42:07.932Z,41.4133
2023-05-14T05:43:09.020Z,41.4306
2023-05-14T05:44:10.124Z,41.4808
2023-05-14T05:45:11.215Z,41.3402
2023-05-14T05:46:12.343Z,41.1963
2023-05-14T05:47:13.438Z,41.2067
2023-05-14T05:48:14.537Z,41.2159
2023-05-14T05:49:15.621Z,41.2332
2023-05-14T05:50:18.399Z,41.2472
2023-05-14T05:51:17.851Z,41.3182
2023-05-14T05:52:18.900Z,41.3819
2023-05-14T05:53:20.035Z,41.4710
2023-05-14T05:54:21.105Z,41.5537
2023-05-14T05:55:22.210Z,41.4769
2023-05-14T05:56:23.311Z,41.4851
2023-05-14T05:57:26.305Z,41.4740
2023-05-14T05:58:25.525Z,41.6147
2023-05-14T05:59:26.628Z,41.6194
2023-05-14T06:00:27.701Z,41.5669
2023-05-14T06:01:28.832Z,41.5602
2023-05-14T06:02:29.997Z,41.5090
2023-05-14T06:03:31.003Z,41.5276
2023-05-14T06:04:32.129Z,41.5387
2023-05-14T06:05:33.303Z,41.4521
2023-05-14T06:06:34.328Z,41.4420
2023-05-14T06:07:35.389Z,41.4303
2023-05-14T06:08:36.513Z,41.4210
2023-05-14T06:09:37.629Z,41.4561
2023-05-14T06:10:38.709Z,41.4953
2023-05-14T06:11:39.800Z,41.6205
2023-05-14T06:12:40.908Z,41.6482
2023-05-14T06:13:41.994Z,41.6405
2023-05-14T06:14:43.107Z,41.5644
2023-05-14T06:15:44.218Z,41.6153
2023-05-14T06:16:45.362Z,41.6666
2023-05-14T06:17:46.439Z,41.7030
2023-05-14T06:18:47.510Z,41.6460
2023-05-14T06:19:48.632Z,41.6856
2023-05-14T06:20:49.682Z,41.7517
2023-05-14T06:21:50.811Z,41.7430
2023-05-14T06:22:51.899Z,41.6780
2023-05-14T06:23:53.002Z,41.6517
2023-05-14T06:24:54.104Z,41.6184
2023-05-14T06:25:55.174Z,41.6933
2023-05-14T06:26:56.294Z,41.6687
2023-05-14T06:27:57.358Z,41.6198
2023-05-14T06:28:58.471Z,41.6757
2023-05-14T06:29:59.581Z,41.8291
2023-05-14T06:31:00.671Z,41.9536
2023-05-14T06:32:01.842Z,42.0720
2023-05-14T06:33:02.884Z,42.0227
2023-05-14T06:34:03.957Z,41.9408
2023-05-14T06:35:05.058Z,41.9020
2023-05-14T06:36:06.148Z,41.8947
2023-05-14T06:37:07.275Z,41.9698
2023-05-14T06:38:08.367Z,41.8856
2023-05-14T06:39:09.466Z,41.7660
2023-05-14T06:40:10.550Z,41.8057
2023-05-14T06:41:11.642Z,41.8854
2023-05-14T06:42:12.750Z,41.8499
2023-05-14T06:43:13.941Z,41.7670
2023-05-14T06:44:15.033Z,41.7753
2023-05-14T06:45:16.143Z,41.7590
2023-05-14T06:46:17.238Z,41.8280
2023-05-14T06:47:18.320Z,41.8511
2023-05-14T06:48:19.536Z,42.0221
2023-05-14T06:49:20.540Z,42.2362
2023-05-14T06:50:21.828Z,42.3007
2023-05-14T06:51:22.723Z,42.3353
2023-05-14T06:52:23.827Z,42.4181
2023-05-14T06:53:24.934Z,42.4303
2023-05-14T06:54:26.038Z,42.5386
2023-05-14T06:55:27.101Z,42.5761
2023-05-14T06:56:28.221Z,42.6188
2023-05-14T06:57:29.323Z,42.7161
2023-05-14T06:58:30.429Z,42.7135
2023-05-14T06:59:31.505Z,42.7669
2023-05-14T07:00:32.624Z,42.8372
2023-05-14T07:01:33.746Z,42.8113
2023-05-14T07:02:34.834Z,42.7959
2023-05-14T07:03:35.899Z,42.8808
2023-05-14T07:04:37.081Z,42.9233
2023-05-14T07:05:38.116Z,43.0215
2023-05-14T07:06:39.219Z,43.0763
2023-05-14T07:07:40.325Z,43.0851
2023-05-14T07:08:41.408Z,43.0181
2023-05-14T07:09:42.496Z,42.9887
2023-05-14T07:10:43.619Z,42.9851
2023-05-14T07:11:44.720Z,42.9438
2023-05-14T07:12:45.846Z,42.9478
2023-05-14T07:13:46.935Z,43.0542
2023-05-14T07:14:48.028Z,43.2397
2023-05-14T07:15:49.098Z,43.3314
2023-05-14T07:16:50.258Z,43.2875
2023-05-14T07:17:51.345Z,43.3152
2023-05-14T07:18:52.450Z,43.3864
2023-05-14T07:19:53.496Z,43.4535
2023-05-14T07:20:54.587Z,43.4863
2023-05-14T07:21:55.709Z,43.5131
2023-05-14T07:22:56.841Z,43.5970
2023-05-14T07:23:57.884Z,43.5963
2023-05-14T07:24:58.984Z,43.6400
2023-05-14T07:26:00.096Z,43.6929
2023-05-14T07:27:01.203Z,43.7890
2023-05-14T07:28:02.288Z,43.9080
2023-05-14T07:29:03.406Z,43.9148
2023-05-14T07:30:04.482Z,43.9204
2023-05-14T07:31:05.681Z,43.9578
2023-05-14T07:32:06.701Z,43.9266
2023-05-14T07:33:07.829Z,43.8978
2023-05-14T07:34:08.886Z,43.9295
2023-05-14T07:35:09.975Z,43.9897
2023-05-14T07:36:11.123Z,44.0323
2023-05-14T07:37:12.194Z,44.1793
2023-05-14T07:38:13.273Z,44.3554
2023-05-14T07:39:14.364Z,44.2871
2023-05-14T07:40:15.481Z,44.2258
2023-05-14T07:41:16.571Z,44.2974
2023-05-14T07:42:28.004Z,44.3776
2023-05-14T07:43:19.778Z,44.3965
2023-05-14T07:44:19.865Z,44.4728
2023-05-14T07:45:20.957Z,44.5480
2023-05-14T07:46:22.070Z,44.5734
2023-05-14T07:47:23.188Z,44.5476
2023-05-14T07:48:24.341Z,44.6156
2023-05-14T07:49:25.377Z,44.6440
2023-05-14T07:50:26.748Z,44.6926
2023-05-14T07:51:27.560Z,44.7798
2023-05-14T07:52:28.637Z,44.9572
2023-05-14T07:53:29.758Z,45.0756
2023-05-14T07:54:30.850Z,45.1365
2023-05-14T07:55:31.952Z,45.2196
2023-05-14T07:56:33.055Z,45.1876
2023-05-14T07:57:34.152Z,45.1138
2023-05-14T07:58:35.255Z,45.0884
2023-05-14T07:59:36.345Z,45.0850
2023-05-14T08:00:37.450Z,45.1335
2023-05-14T08:01:39.480Z,45.1727
2023-05-14T08:02:39.766Z,45.2552
2023-05-14T08:03:40.793Z,45.2514
2023-05-14T08:04:41.839Z,45.2001
2023-05-14T08:05:42.964Z,45.1008
2023-05-14T08:06:44.053Z,45.0116
2023-05-14T08:07:45.163Z,45.0841
2023-05-14T08:08:46.321Z,45.1523
2023-05-14T08:09:47.348Z,45.1344
2023-05-14T08:10:48.457Z,45.0481
2023-05-14T08:11:49.553Z,45.0259
2023-05-14T08:12:50.651Z,44.9708
2023-05-14T08:13:51.757Z,44.9305
2023-05-14T08:14:52.846Z,44.9628
2023-05-14T08:15:53.955Z,45.0827
2023-05-14T08:16:55.116Z,45.2777
2023-05-14T08:17:56.202Z,45.3188
2023-05-14T08:18:57.291Z,45.1513
2023-05-14T08:19:58.320Z,45.1022
2023-05-14T08:20:59.441Z,45.0834
2023-05-14T08:22:00.555Z,45.0045
2023-05-14T08:23:01.636Z,44.9593
2023-05-14T08:24:02.726Z,44.9377
2023-05-14T08:25:03.813Z,44.9876
2023-05-14T08:26:04.918Z,45.0186
2023-05-14T08:27:06.018Z,45.0296
2023-05-14T08:28:07.134Z,45.0931
2023-05-14T08:29:09.362Z,45.1661
2023-05-14T08:30:09.295Z,45.1628
2023-05-14T08:31:10.440Z,45.1495
2023-05-14T08:32:22.006Z,45.1293
2023-05-14T08:33:13.608Z,45.0907
2023-05-14T08:34:13.716Z,45.1920
2023-05-14T08:35:14.808Z,45.3363
2023-05-14T08:36:15.896Z,45.3341
2023-05-14T08:37:16.991Z,45.3191
2023-05-14T08:38:18.097Z,45.2236
2023-05-14T08:39:19.188Z,45.1267
2023-05-14T08:40:20.278Z,45.0439
2023-05-14T08:41:21.382Z,44.9372
2023-05-14T08:42:22.487Z,44.8554
2023-05-14T08:43:23.581Z,44.9175
2023-05-14T08:44:24.665Z,45.0023
2023-05-14T08:45:25.826Z,44.9653
2023-05-14T08:46:26.849Z,44.9620
2023-05-14T08:47:27.977Z,45.0119
2023-05-14T08:48:29.141Z,44.9858
2023-05-14T08:49:30.175Z,44.9704
2023-05-14T08:50:31.337Z,44.9268
2023-05-14T08:51:32.327Z,44.8612
2023-05-14T08:52:33.428Z,44.8225
2023-05-14T08:53:34.534Z,44.8176
2023-05-14T08:54:35.648Z,44.8676
2023-05-14T08:55:36.705Z,44.9636
2023-05-14T08:56:37.805Z,45.1365
2023-05-14T08:57:38.903Z,45.0698
2023-05-14T08:58:40.020Z,44.9965
2023-05-14T08:59:41.108Z,44.9411
2023-05-14T09:00:42.207Z,44.8418
2023-05-14T09:01:43.283Z,44.7850
2023-05-14T09:02:44.488Z,44.7832
2023-05-14T09:03:45.580Z,44.8264
2023-05-14T09:04:46.570Z,44.8686
2023-05-14T09:05:47.692Z,44.8715
2023-05-14T09:06:48.754Z,44.8836
2023-05-14T09:07:49.858Z,44.9437
2023-05-14T09:08:50.976Z,44.9140
2023-05-14T09:09:52.095Z,44.8828
2023-05-14T09:10:53.162Z,44.9361
2023-05-14T09:11:54.264Z,45.0041
2023-05-14T09:12:55.357Z,45.0080
2023-05-14T09:13:56.431Z,45.0412
2023-05-14T09:14:57.579Z,45.0965
2023-05-14T09:15:58.668Z,45.0737
2023-05-14T09:16:59.729Z,45.1100
2023-05-14T09:18:00.870Z,45.1919
2023-05-14T09:19:02.019Z,45.1521
2023-05-14T09:20:03.073Z,45.0848
2023-05-14T09:21:04.144Z,44.9888
2023-05-14T09:22:05.253Z,44.8277
2023-05-14T09:23:06.324Z,44.8993
2023-05-14T09:24:07.428Z,44.8761
2023-05-14T09:25:08.554Z,44.7743
2023-05-14T09:26:09.643Z,44.8524
2023-05-14T09:27:10.729Z,44.8513
2023-05-14T09:28:11.871Z,44.7714
2023-05-14T09:29:12.937Z,44.7007
2023-05-14T09:30:14.046Z,44.6387
2023-05-14T09:31:15.156Z,44.6105
2023-05-14T09:32:16.229Z,44.6530
2023-05-14T09:33:17.325Z,44.6471
2023-05-14T09:34:18.425Z,44.7025
2023-05-14T09:35:19.530Z,44.6239
2023-05-14T09:36:20.600Z,44.6023
2023-05-14T09:37:21.725Z,44.6123
2023-05-14T09:38:22.798Z,44.6273
2023-05-14T09:39:23.918Z,44.6136
2023-05-14T09:40:25.402Z,44.5791
2023-05-14T09:41:26.091Z,44.5804
2023-05-14T09:42:27.196Z,44.5706
2023-05-14T09:43:28.298Z,44.5652
2023-05-14T09:44:29.439Z,44.5539
2023-05-14T09:45:30.518Z,44.6224
2023-05-14T09:46:31.612Z,44.6321
2023-05-14T09:47:32.803Z,44.6534
2023-05-14T09:48:33.824Z,44.6712
2023-05-14T09:49:34.883Z,44.7735
2023-05-14T09:50:35.965Z,44.8211
2023-05-14T09:51:37.061Z,44.8593
2023-05-14T09:52:38.171Z,44.8998
2023-05-14T09:53:39.262Z,44.8222
2023-05-14T09:54:40.362Z,44.8600
2023-05-14T09:55:41.474Z,44.8385
2023-05-14T09:56:42.529Z,44.8492
2023-05-14T09:57:43.648Z,44.8425
2023-05-14T09:58:44.750Z,44.8415
2023-05-14T09:59:45.841Z,44.9424
2023-05-14T10:00:46.967Z,45.0155
2023-05-14T10:01:48.017Z,45.1118
2023-05-14T10:02:49.147Z,45.2220
2023-05-14T10:03:50.299Z,45.3734
2023-05-14T10:04:51.414Z,45.5271
2023-05-14T10:05:52.422Z,45.5454
2023-05-14T10:06:53.511Z,45.5875
2023-05-14T10:07:54.604Z,45.6510
2023-05-14T10:08:55.680Z,45.7727
2023-05-14T10:09:58.148Z,45.7890
2023-05-14T10:10:57.869Z,45.7576
2023-05-14T10:11:58.992Z,45.7450
2023-05-14T10:13:00.107Z,45.7711
2023-05-14T10:14:01.203Z,45.8152
2023-05-14T10:15:02.260Z,45.7685
2023-05-14T10:16:03.392Z,45.7562
2023-05-14T10:17:04.501Z,45.8018
2023-05-14T10:18:05.615Z,45.7434
2023-05-14T10:19:06.666Z,45.5622
2023-05-14T10:20:07.751Z,45.5366
2023-05-14T10:21:08.845Z,45.5850
2023-05-14T10:22:09.929Z,45.6552
2023-05-14T10:23:11.076Z,45.7052
2023-05-14T10:24:12.156Z,45.6291
2023-05-14T10:25:13.245Z,45.5181
2023-05-14T10:26:14.335Z,45.4544
2023-05-14T10:27:15.435Z,45.3402
2023-05-14T10:28:16.526Z,45.2124
2023-05-14T10:29:17.636Z,45.0443
2023-05-14T10:30:18.727Z,45.0778
2023-05-14T10:31:19.876Z,45.1714
2023-05-14T10:32:20.961Z,45.2332
2023-05-14T10:33:22.033Z,45.2742
2023-05-14T10:34:23.100Z,45.2946
2023-05-14T10:35:24.214Z,45.4426
2023-05-14T10:36:25.300Z,45.4235
2023-05-14T10:37:26.421Z,45.2809
2023-05-14T10:38:27.512Z,45.1277
2023-05-14T10:39:28.593Z,45.1264
2023-05-14T10:40:29.691Z,45.0104
2023-05-14T10:41:30.832Z,44.9317
2023-05-14T10:42:31.923Z,44.9993
2023-05-14T10:43:33.022Z,45.0746
2023-05-14T10:44:34.168Z,45.0493
2023-05-14T10:45:35.226Z,44.9063
2023-05-14T10:46:36.366Z,44.7948
2023-05-14T10:47:37.491Z,44.7781
2023-05-14T10:48:38.550Z,44.7659
2023-05-14T10:49:43.425Z,44.7221
2023-05-14T10:50:40.770Z,44.6692
2023-05-14T10:51:41.916Z,44.6497
2023-05-14T10:52:42.894Z,44.5725
2023-05-14T10:53:44.025Z,44.5050
2023-05-14T10:54:45.118Z,44.4487
2023-05-14T10:55:46.199Z,44.3825
2023-05-14T10:56:47.313Z,44.4427
2023-05-14T10:57:48.393Z,44.5004
2023-05-14T10:58:49.535Z,44.5191
2023-05-14T10:59:50.590Z,44.5782
2023-05-14T11:00:51.718Z,44.6415
2023-05-14T11:01:52.801Z,44.5200
2023-05-14T11:02:53.898Z,44.3833
2023-05-14T11:03:55.011Z,44.3202
2023-05-14T11:04:56.073Z,44.3636
2023-05-14T11:05:57.152Z,44.4226
2023-05-14T11:06:58.245Z,44.3637
2023-05-14T11:07:59.329Z,44.2330
2023-05-14T11:09:00.407Z,44.1541
2023-05-14T11:10:01.511Z,44.0719
2023-05-14T11:11:02.608Z,44.0108
2023-05-14T11:12:03.744Z,44.0237
2023-05-14T11:13:04.799Z,43.9882
2023-05-14T11:14:06.716Z,43.9197
2023-05-14T11:15:06.978Z,44.0966
2023-05-14T11:16:21.807Z,44.1850
2023-05-14T11:17:10.240Z,44.2418
2023-05-14T11:18:10.305Z,44.3856
2023-05-14T11:19:11.561Z,44.4524
2023-05-14T11:20:12.454Z,44.4764
2023-05-14T11:21:13.534Z,44.4118
2023-05-14T11:22:14.649Z,44.4105
2023-05-14T11:23:15.699Z,44.4187
2023-05-14T11:24:16.804Z,44.2698
2023-05-14T11:25:17.905Z,44.1856
2023-05-14T11:26:21.533Z,44.1914
2023-05-14T11:27:20.089Z,44.2373
2023-05-14T11:28:21.156Z,44.1479
2023-05-14T11:29:22.253Z,44.1641
2023-05-14T11:30:23.553Z,44.2189
2023-05-14T11:31:24.486Z,44.2428
2023-05-14T11:32:25.572Z,44.2817
2023-05-14T11:33:26.641Z,44.3686
2023-05-14T11:34:27.719Z,44.5112
2023-05-14T11:35:28.806Z,44.7512
2023-05-14T11:36:29.882Z,44.8833
2023-05-14T11:37:31.022Z,44.7568
2023-05-14T11:38:32.096Z,44.6432
2023-05-14T11:39:33.181Z,44.7422
2023-05-14T11:40:34.280Z,44.6613
2023-05-14T11:41:35.351Z,44.5260
2023-05-14T11:42:36.452Z,44.5195
2023-05-14T11:43:37.561Z,44.5414
2023-05-14T11:44:38.655Z,44.4740
2023-05-14T11:45:39.759Z,44.3976
2023-05-14T11:46:40.893Z,44.3991
2023-05-14T11:47:42.006Z,44.5577
2023-05-14T11:48:43.030Z,44.5040
2023-05-14T11:49:44.122Z,44.4603
2023-05-14T11:50:45.212Z,44.4834
2023-05-14T11:51:46.298Z,44.3712
2023-05-14T11:52:47.393Z,44.3758
2023-05-14T11:53:48.504Z,44.3072
2023-05-14T11:54:49.587Z,44.2433
2023-05-14T11:55:50.696Z,44.1754
2023-05-14T11:56:51.760Z,44.2843
2023-05-14T11:57:52.855Z,44.2083
2023-05-14T11:58:53.967Z,44.1419
2023-05-14T11:59:55.040Z,44.1210
2023-05-14T12:00:56.143Z,44.1345
2023-05-14T12:01:57.235Z,44.0077
2023-05-14T12:02:58.370Z,43.9084
2023-05-14T12:03:59.471Z,43.7861
2023-05-14T12:05:00.484Z,43.8587
2023-05-14T12:06:01.599Z,43.9459
2023-05-14T12:07:02.656Z,43.9735
2023-05-14T12:08:03.793Z,43.9833
2023-05-14T12:09:04.863Z,43.8523
2023-05-14T12:10:05.975Z,43.7203
2023-05-14T12:11:07.040Z,43.6580
2023-05-14T12:12:08.129Z,43.7326
2023-05-14T12:13:09.244Z,43.6567
2023-05-14T12:14:10.332Z,43.5763
2023-05-14T12:15:11.434Z,43.4674
2023-05-14T12:16:12.629Z,43.3448
2023-05-14T12:17:13.609Z,43.2055
2023-05-14T12:18:23.950Z,43.1823
2023-05-14T12:19:16.844Z,43.0982